• Join FlightAware (Why Join?)
  • Login
  • US Flag 
06:15AM EST


 

Airport Tracker/Info


-or-


 

Live Flight TrackerFlight Track Log ✈ N799CP ✈ 11-Oct-2013 ✈ KEGE - KSTP

Flight Track Log - Related Links

Times and Time Zones

All times are in EDT time to prevent confusion due to time zone crossing. See the N799CP flight status page for this flight to view local times or setup timezone preferences in your user account.

Time Position Orientation Groundspeed Altitude Reporting Facility
EDT Latitude Longitude Course Direction KTS MPH feet Rate Location/Type
12:10PM 39.6178 -107.0381 266° West 266 306 10,900  Level Denver Center
12:11PM 39.7128 -107.0508 354° North 326 375 14,100 2,880 Climbing Denver Center
12:12PM 39.8028 -106.9992 24° Northeast 371 427 16,900 2,700 Climbing Denver Center
12:13PM 40.0208 -106.1159 57° Northeast  Level Estimated
12:13PM 39.8636 -106.8792 57° Northeast 396 456 19,700  Level Denver Center
12:14PM 40.0952 -105.9924 52° Northeast  Level FlightAware Approximate
12:14PM 39.9250 -106.7483 59° Northeast 417 480 22,500  Level Denver Center
12:15PM 39.9875 -106.6089 60° Northeast 431 496 25,100 2,340 Climbing Denver Center
12:16PM 40.0567 -106.4603 59° Northeast 444 511 27,400 2,100 Climbing Denver Center
12:17PM 40.1231 -106.3122 60° Northeast 467 537 29,500 2,100 Climbing Denver Center
12:18PM 40.1906 -106.1633 59° Northeast 475 547 31,800 1,740 Climbing Denver Center
12:19PM 40.2567 -106.0119 60° Northeast 479 551 33,200 1,500 Climbing Denver Center
12:20PM 40.3283 -105.8569 59° Northeast 493 567 34,900 1,680 Climbing Denver Center
12:21PM 40.4094 -105.6697 60° Northeast 491 565 36,700 1,680 Climbing Denver Center
12:22PM 40.4797 -105.5108 60° Northeast 499 574 38,400 1,440 Climbing Denver Center
12:23PM 40.5492 -105.3525 60° Northeast 499 574 39,700 960 Climbing Denver Center
12:24PM 40.6197 -105.1936 60° Northeast 501 577 40,400 600 Climbing Denver Center
12:25PM 40.6897 -105.0308 60° Northeast 507 583 41,000 240 Climbing Denver Center
12:26PM 40.7606 -104.8656 60° Northeast 517 595 41,000  Level Denver Center
12:27PM 40.8461 -104.6675 60° Northeast 518 596 41,000  Level Denver Center
12:28PM 40.9194 -104.4986 60° Northeast 526 605 41,000  Level Denver Center
12:29PM 40.9900 -104.3300 61° Northeast 524 603 41,000  Level Denver Center
12:31PM 41.0664 -104.1503 61° Northeast 525 604 41,000  Level Denver Center
12:32PM 41.1339 -103.9911 61° Northeast 523 602 41,000  Level Denver Center
12:33PM 41.2122 -103.8017 61° Northeast 524 603 41,000  Level Denver Center
12:34PM 41.2803 -103.6381 61° Northeast 526 605 41,000  Level Denver Center
12:35PM 41.3586 -103.4489 61° Northeast 527 606 41,000  Level Denver Center
12:36PM 41.4250 -103.2858 61° Northeast 525 604 41,000  Level Denver Center
12:37PM 41.5036 -103.0950 61° Northeast 526 605 41,000  Level Denver Center
12:38PM 41.5700 -102.9283 62° Northeast 531 611 41,000  Level Denver Center
12:39PM 41.6492 -102.7353 61° Northeast 533 613 41,000  Level Denver Center
12:40PM 41.7167 -102.5628 62° Northeast 532 612 41,000  Level Denver Center
12:41PM 41.7933 -102.3722 62° Northeast 537 618 41,000  Level Denver Center
12:42PM 41.8639 -102.1967 62° Northeast 537 618 41,000  Level Denver Center
12:43PM 41.9303 -102.0256 62° Northeast 538 619 41,000  Level Denver Center
12:44PM 42.0089 -101.8264 62° Northeast 540 621 41,000  Level Denver Center
12:45PM 42.0761 -101.6547 62° Northeast 541 623 41,000  Level Denver Center
12:46PM 42.1525 -101.4547 63° Northeast 537 618 41,000  Level Denver Center
12:47PM 42.2189 -101.2833 62° Northeast 537 618 41,000  Level Denver Center
12:48PM 42.2942 -101.0842 63° Northeast 534 615 41,000  Level Denver Center
12:49PM 42.3586 -100.9128 63° Northeast 534 615 41,000  Level Denver Center
12:50PM 42.4242 -100.7428 62° Northeast 533 613 41,000  Level Denver Center
12:51PM 42.4981 -100.5417 63° Northeast 534 615 41,000  Level Denver Center
12:52PM 42.5617 -100.3700 63° Northeast 534 615 41,000  Level Denver Center
12:53PM 42.6358 -100.1686 63° Northeast 534 615 41,000  Level Denver Center
12:54PM 42.7064 -99.9781 63° Northeast 535 616 41,000  Level Minneapolis Center
12:55PM 42.7681 -99.8092 64° Northeast 534 615 41,000  Level Denver Center
12:56PM 42.8322 -99.6281 64° Northeast 533 613 41,000  Level Denver Center
12:57PM 42.9072 -99.4381 62° Northeast 532 612 41,000  Level Minneapolis Center
01:03PM 43.3608 -98.4097 62° Northeast 532 612 41,000  Level FlightAware ADS-B
01:05PM 43.4705 -98.1559 59° Northeast 529 609 41,000  Level FlightAware ADS-B
01:06PM 43.5932 -97.8684 59° Northeast 531 611 41,000  Level FlightAware ADS-B
01:10PM 43.8637 -97.2257 60° Northeast 533 613 41,000  Level FlightAware ADS-B
01:11PM 43.9183 -97.0900 60° Northeast 530 610 41,000  Level Minneapolis Center
01:12PM 43.9925 -96.9114 60° Northeast 533 613 41,000  Level Minneapolis Center
01:13PM 44.0794 -96.7000 60° Northeast 528 608 41,000  Level Minneapolis Center
01:14PM 44.1494 -96.5286 60° Northeast 514 592 41,000  Level Minneapolis Center
01:15PM 44.2194 -96.3567 60° Northeast 507 583 41,000  Level Minneapolis Center
01:16PM 44.2931 -96.1753 60° Northeast 510 587 41,000  Level Minneapolis Center
01:17PM 44.3631 -96.0014 61° Northeast 509 586 41,000  Level Minneapolis Center
01:18PM 44.4311 -95.8294 61° Northeast 506 582 41,000  Level Minneapolis Center
01:19PM 44.5006 -95.6569 61° Northeast 507 583 41,000  Level Minneapolis Center
01:20PM 44.5697 -95.4819 61° Northeast 512 589 41,000  Level Minneapolis Center
01:21PM 44.6261 -95.2572 71° East 508 585 41,000 -1,080 Level Minneapolis Center
01:22PM 44.6658 -95.0681 73° East 506 582 38,800 -3,000 Descending Minneapolis Center
01:23PM 44.7061 -94.8786 73° East 507 583 34,800 -4,560 Descending Minneapolis Center
01:24PM 44.7442 -94.6897 74° East 505 581 29,400 -4,920 Descending Minneapolis Center
01:25PM 44.7867 -94.4869 73° East 496 571 24,700 -4,440 Descending Minneapolis Center
01:26PM 44.8200 -94.3214 74° East 453 521 20,300 -4,320 Descending Minneapolis Center
01:27PM 44.8506 -94.1658 74° East 419 482 15,800 -4,320 Descending Minneapolis Center
01:28PM 44.8308 -94.0367 102° East 348 400 11,400 -2,880 Descending Minneapolis Center
01:30PM 44.7953 -93.9339 116° Southeast 292 336 9,800 -1,620 Descending Minneapolis Center
01:31PM 44.7608 -93.8261 114° Southeast 254 292 8,100 -1,620 Descending Minneapolis Center
01:32PM 44.7406 -93.7333 107° East 259 298 6,500 -1,260 Descending Minneapolis Center
01:33PM 44.7483 -93.6314 84° East 261 300 5,500 -1,200 Descending Minneapolis Center
01:34PM 44.7561 -93.5389 83° East 242 278 4,100 -780 Descending Minneapolis Center
01:35PM 44.7786 -93.4489 71° East 258 297 4,000 -60 Descending Minneapolis Center
01:36PM 44.8331 -93.3722 45° Northeast 271 312 4,000  Level Minneapolis Center
01:37PM 44.8869 -93.2964 45° Northeast 270 311 4,000 -180 Level Minneapolis Center
01:38PM 44.9400 -93.2197 46° Northeast 270 311 3,700 -720 Descending Minneapolis Center
01:39PM 44.9822 -93.1236 58° Northeast 239 275 2,600 -1,080 Descending Minneapolis Center
01:40PM 44.9644 -93.0875 125° Southeast 131 151 1,500 -720 Descending Minneapolis Center
01:41PM 44.9372 -93.0681 153° Southeast 121 139 1,200 -300 Descending Minneapolis Center